Terminal Aerodrome Forecast
Issued by NWS

Home | Current Version | Previous Version | Text Only | Print | Product List | Glossary On
Versions: 1 2 3 4 5 6 7 8 9 10 11 12 13 14 15 16 17
200
FTUS42 KMLB 300539
TAFFPR
TAF
KFPR 300539Z 3006/3106 23004KT P6SM SCT120 SCT250
     FM301300 20004KT P6SM SCT030 BKN250
     FM301700 10010KT P6SM SCT040 BKN250
     FM302200 13010KT P6SM VCTS BKN050CB BKN250
     FM310200 16005KT P6SM BKN080 BKN250=

USA.gov is the U.S. government's official web portal to all federal, state and local government web resources and services.